createdAt,value
2018-03-20T00:00:42.965Z,6.76
2018-03-20T00:03:10.177Z,6.69
2018-03-20T00:05:37.446Z,6.66
2018-03-20T00:08:04.568Z,6.62
2018-03-20T00:10:31.374Z,6.17
2018-03-20T00:12:59.178Z,6.44
2018-03-20T00:15:26.964Z,6.62
2018-03-20T00:17:54.338Z,6.60
2018-03-20T00:20:21.648Z,6.50
2018-03-20T00:22:50.583Z,6.55
2018-03-20T00:25:17.635Z,6.57
2018-03-20T00:27:44.961Z,6.36
2018-03-20T00:30:12.199Z,6.51
2018-03-20T00:32:39.161Z,6.53
2018-03-20T00:35:06.010Z,6.60
2018-03-20T00:37:33.277Z,6.41
2018-03-20T00:40:00.769Z,5.97
2018-03-20T00:42:27.885Z,6.05
2018-03-20T00:44:55.296Z,5.36
2018-03-20T00:47:22.495Z,5.71
2018-03-20T00:49:49.558Z,5.53
2018-03-20T00:52:16.300Z,5.43
2018-03-20T00:54:43.032Z,5.30
2018-03-20T00:57:10.680Z,5.47
2018-03-20T00:59:37.782Z,5.08
2018-03-20T01:02:06.318Z,5.41
2018-03-20T01:04:33.640Z,5.18
2018-03-20T01:07:00.868Z,5.27
2018-03-20T01:09:28.592Z,4.74
2018-03-20T01:11:56.049Z,5.11
2018-03-20T01:14:22.827Z,4.31
2018-03-20T01:16:49.898Z,4.69
2018-03-20T01:19:16.980Z,4.80
2018-03-20T01:21:43.786Z,4.73
2018-03-20T01:24:10.543Z,4.82
2018-03-20T01:26:37.697Z,4.87
2018-03-20T01:29:06.015Z,4.86
2018-03-20T01:31:33.062Z,4.66
2018-03-20T01:34:00.323Z,3.88
2018-03-20T01:36:27.961Z,4.22
2018-03-20T01:38:55.592Z,4.40
2018-03-20T01:41:22.956Z,4.29
2018-03-20T01:43:49.782Z,4.72
2018-03-20T01:46:16.880Z,4.84
2018-03-20T01:48:43.816Z,4.39
2018-03-20T01:51:10.939Z,4.83
2018-03-20T01:53:37.969Z,3.67
2018-03-20T01:56:05.428Z,3.83
2018-03-20T01:58:32.825Z,4.13
2018-03-20T02:01:00.287Z,4.10
2018-03-20T02:03:27.869Z,4.10
2018-03-20T02:05:55.139Z,4.08
2018-03-20T02:08:22.267Z,4.32
2018-03-20T02:10:49.508Z,4.50
2018-03-20T02:15:02.094Z,4.72
2018-03-20T02:17:29.327Z,4.72
2018-03-20T02:19:56.262Z,4.73
2018-03-20T02:22:23.914Z,4.78
2018-03-20T02:24:50.723Z,4.88
2018-03-20T02:27:17.476Z,4.65
2018-03-20T02:29:44.238Z,4.70
2018-03-20T02:32:11.375Z,4.91
2018-03-20T02:34:38.203Z,4.47
2018-03-20T02:37:05.792Z,4.85
2018-03-20T02:39:33.339Z,4.97
2018-03-20T02:44:41.336Z,4.98
2018-03-20T02:47:08.462Z,5.01
2018-03-20T02:49:36.424Z,5.04
2018-03-20T02:52:03.519Z,5.07
2018-03-20T02:54:31.024Z,4.95
2018-03-20T02:56:57.980Z,5.12
2018-03-20T02:59:24.855Z,4.73
2018-03-20T03:01:52.183Z,5.01
2018-03-20T03:04:19.316Z,5.04
2018-03-20T03:06:46.337Z,4.60
2018-03-20T03:09:13.064Z,4.70
2018-03-20T03:11:40.698Z,4.87
2018-03-20T03:14:07.785Z,4.74
2018-03-20T03:16:34.840Z,4.90
2018-03-20T03:19:01.545Z,5.01
2018-03-20T03:21:28.432Z,5.08
2018-03-20T03:23:55.623Z,5.14
2018-03-20T03:26:22.404Z,5.23
2018-03-20T03:28:49.790Z,5.22
2018-03-20T03:31:16.508Z,5.21
2018-03-20T03:33:43.679Z,5.31
2018-03-20T03:36:10.691Z,5.09
2018-03-20T03:38:37.747Z,5.05
2018-03-20T03:41:05.256Z,5.15
2018-03-20T03:43:33.557Z,5.31
2018-03-20T03:46:00.440Z,5.37
2018-03-20T03:48:27.216Z,5.39
2018-03-20T03:50:54.384Z,5.43
2018-03-20T03:53:21.368Z,5.50
2018-03-20T03:55:48.385Z,5.50
2018-03-20T03:58:15.167Z,5.55
2018-03-20T04:00:42.143Z,5.42
2018-03-20T04:03:09.196Z,5.60
2018-03-20T04:05:37.020Z,5.45
2018-03-20T04:08:05.139Z,5.54
2018-03-20T04:13:06.200Z,5.53
2018-03-20T04:15:33.569Z,5.46
2018-03-20T04:18:00.699Z,5.53
2018-03-20T04:20:28.455Z,5.67
2018-03-20T04:22:55.426Z,5.36
2018-03-20T04:25:23.240Z,5.07
2018-03-20T04:27:50.303Z,4.99
2018-03-20T04:30:17.357Z,4.74
2018-03-20T04:32:44.442Z,4.41
2018-03-20T04:35:12.488Z,4.14
2018-03-20T04:37:39.460Z,3.70
2018-03-20T04:40:07.293Z,3.87
2018-03-20T04:42:34.468Z,4.70
2018-03-20T04:45:01.780Z,3.72
2018-03-20T04:50:02.390Z,2.86
2018-03-20T04:52:29.370Z,2.85
2018-03-20T04:54:56.174Z,2.84
2018-03-20T04:57:25.697Z,3.90
2018-03-20T04:59:52.778Z,4.41
2018-03-20T05:02:20.339Z,4.33
2018-03-20T05:04:47.525Z,4.74
2018-03-20T05:07:14.617Z,4.87
2018-03-20T05:09:41.850Z,4.93
2018-03-20T05:12:09.032Z,4.01
2018-03-20T05:14:37.033Z,3.94
2018-03-20T05:17:04.455Z,3.52
2018-03-20T05:19:41.831Z,4.53
2018-03-20T05:22:15.234Z,4.04
2018-03-20T05:24:42.681Z,3.35
2018-03-20T05:27:09.892Z,3.19
2018-03-20T05:29:37.041Z,3.76
2018-03-20T05:32:04.449Z,3.07
2018-03-20T05:34:31.087Z,2.89
2018-03-20T05:36:58.097Z,3.25
2018-03-20T05:39:25.427Z,2.92
2018-03-20T05:41:52.385Z,2.89
2018-03-20T05:44:19.804Z,3.16
2018-03-20T05:49:54.386Z,3.57
2018-03-20T05:52:22.025Z,3.73
2018-03-20T05:54:49.053Z,3.75
2018-03-20T05:57:16.511Z,4.57
2018-03-20T05:59:43.736Z,3.91
2018-03-20T06:02:11.116Z,4.02
2018-03-20T06:04:37.964Z,3.63
2018-03-20T06:07:06.456Z,3.39
2018-03-20T06:09:33.360Z,2.76
2018-03-20T06:12:00.530Z,3.47
2018-03-20T06:14:30.122Z,2.94
2018-03-20T06:16:58.427Z,4.04
2018-03-20T06:19:25.314Z,4.43
2018-03-20T06:21:52.573Z,4.42
2018-03-20T06:24:19.531Z,3.80
2018-03-20T06:26:46.610Z,3.56
2018-03-20T06:29:14.095Z,4.48
2018-03-20T06:31:44.230Z,3.26
2018-03-20T06:34:10.991Z,3.23
2018-03-20T06:36:39.194Z,2.85
2018-03-20T06:39:07.340Z,3.29
2018-03-20T06:41:34.372Z,4.06
2018-03-20T06:46:35.240Z,2.97
2018-03-20T06:49:02.195Z,3.00
2018-03-20T06:51:29.323Z,4.00
2018-03-20T06:53:56.254Z,3.84
2018-03-20T06:56:23.620Z,3.80
2018-03-20T06:58:50.708Z,3.22
2018-03-20T07:01:17.739Z,3.74
2018-03-20T07:03:46.314Z,3.18
2018-03-20T07:06:14.973Z,3.51
2018-03-20T07:08:42.641Z,4.28
2018-03-20T07:11:09.971Z,4.33
2018-03-20T07:13:37.358Z,4.41
2018-03-20T07:16:05.938Z,4.10
2018-03-20T07:18:33.305Z,4.61
2018-03-20T07:21:00.867Z,5.05
2018-03-20T07:23:27.727Z,5.39
2018-03-20T07:25:54.392Z,4.34
2018-03-20T07:28:22.224Z,4.11
2018-03-20T07:30:50.344Z,4.48
2018-03-20T07:33:17.236Z,4.15
2018-03-20T07:35:44.911Z,4.63
2018-03-20T07:38:12.192Z,3.78
2018-03-20T07:40:39.892Z,4.75
2018-03-20T07:43:07.054Z,4.89
2018-03-20T07:45:34.297Z,4.74
2018-03-20T07:48:01.230Z,5.52
2018-03-20T07:50:28.518Z,5.90
2018-03-20T07:52:55.356Z,5.84
2018-03-20T07:55:22.523Z,5.53
2018-03-20T07:57:49.422Z,6.18
2018-03-20T08:00:16.940Z,6.58
2018-03-20T08:02:43.808Z,6.49
2018-03-20T08:05:10.636Z,6.51
2018-03-20T08:07:37.448Z,5.79
2018-03-20T08:10:04.515Z,6.23
2018-03-20T08:12:31.327Z,5.28
2018-03-20T08:14:58.478Z,5.25
2018-03-20T08:17:26.135Z,5.94
2018-03-20T08:19:52.923Z,5.97
2018-03-20T08:22:19.859Z,6.20
2018-03-20T08:24:46.463Z,6.58
2018-03-20T08:27:13.706Z,6.77
2018-03-20T08:29:40.710Z,6.97
2018-03-20T08:32:08.254Z,6.67
2018-03-20T08:34:35.148Z,6.78
2018-03-20T08:37:03.473Z,6.59
2018-03-20T08:39:30.774Z,5.25
2018-03-20T08:41:58.256Z,5.33
2018-03-20T08:44:25.459Z,6.44
2018-03-20T08:46:52.372Z,6.05
2018-03-20T08:49:19.624Z,5.93
2018-03-20T08:51:46.503Z,5.61
2018-03-20T08:54:13.507Z,5.04
2018-03-20T08:56:40.456Z,5.55
2018-03-20T08:59:07.541Z,5.92
2018-03-20T09:01:34.538Z,5.49
2018-03-20T09:04:01.558Z,5.69
2018-03-20T09:06:29.012Z,5.75
2018-03-20T09:08:55.756Z,6.13
2018-03-20T09:11:22.782Z,6.84
2018-03-20T09:13:49.864Z,6.18
2018-03-20T09:16:16.915Z,5.84
2018-03-20T09:18:43.824Z,6.14
2018-03-20T09:21:10.566Z,6.13
2018-03-20T09:23:37.843Z,6.26
2018-03-20T09:26:04.454Z,6.66
2018-03-20T09:28:31.271Z,6.54
2018-03-20T09:30:57.972Z,6.54
2018-03-20T09:33:25.121Z,7.19
2018-03-20T09:35:52.154Z,6.65
2018-03-20T09:38:22.054Z,6.30
2018-03-20T09:40:49.141Z,6.62
2018-03-20T09:43:15.911Z,7.38
2018-03-20T09:45:42.818Z,7.43
2018-03-20T09:48:09.692Z,6.79
2018-03-20T09:50:36.768Z,7.06
2018-03-20T09:53:03.841Z,7.09
2018-03-20T09:55:30.918Z,7.37
2018-03-20T09:57:58.374Z,7.32
2018-03-20T10:00:25.329Z,7.56
2018-03-20T10:02:53.034Z,6.47
2018-03-20T10:05:20.940Z,7.02
2018-03-20T10:07:48.094Z,7.15
2018-03-20T10:10:14.937Z,7.29
2018-03-20T10:12:42.228Z,6.55
2018-03-20T10:15:09.083Z,6.41
2018-03-20T10:17:36.269Z,7.23
2018-03-20T10:20:03.249Z,7.31
2018-03-20T10:22:30.959Z,7.46
2018-03-20T10:24:58.044Z,7.72
2018-03-20T10:27:25.647Z,7.21
2018-03-20T10:29:53.251Z,7.88
2018-03-20T10:32:21.588Z,7.70
2018-03-20T10:34:49.075Z,7.58
2018-03-20T10:37:16.250Z,7.66
2018-03-20T10:39:43.887Z,8.06
2018-03-20T10:42:11.376Z,8.33
2018-03-20T10:44:38.354Z,7.99
2018-03-20T10:47:06.375Z,8.29
2018-03-20T10:49:33.994Z,8.41
2018-03-20T10:52:01.756Z,8.56
2018-03-20T10:54:29.204Z,8.59
2018-03-20T10:56:56.599Z,8.88
2018-03-20T10:59:23.849Z,8.60
2018-03-20T11:01:50.898Z,8.36
2018-03-20T11:04:18.246Z,8.85
2018-03-20T11:06:45.073Z,8.49
2018-03-20T11:09:12.255Z,8.55
2018-03-20T11:11:39.470Z,8.62
2018-03-20T11:14:07.704Z,8.74
2018-03-20T11:16:35.039Z,8.13
2018-03-20T11:19:03.268Z,8.21
2018-03-20T11:21:30.978Z,8.46
2018-03-20T11:23:58.109Z,8.59
2018-03-20T11:26:25.122Z,8.62
2018-03-20T11:28:58.977Z,8.40
2018-03-20T11:31:26.288Z,8.43
2018-03-20T11:33:53.762Z,8.52
2018-03-20T11:36:21.186Z,8.18
2018-03-20T11:38:49.083Z,8.48
2018-03-20T11:41:16.531Z,8.82
2018-03-20T11:43:43.492Z,9.01
2018-03-20T11:46:10.655Z,8.75
2018-03-20T11:48:37.823Z,8.56
2018-03-20T11:51:05.078Z,8.90
2018-03-20T11:53:31.943Z,8.95
2018-03-20T11:55:58.595Z,8.68
2018-03-20T11:58:26.183Z,8.87
2018-03-20T12:00:53.650Z,9.07
2018-03-20T12:03:21.311Z,9.06
2018-03-20T12:05:48.358Z,8.76
2018-03-20T12:08:27.456Z,8.61
2018-03-20T12:10:55.203Z,8.93
2018-03-20T12:13:22.327Z,8.78
2018-03-20T12:15:49.331Z,9.04
2018-03-20T12:18:17.026Z,9.20
2018-03-20T12:20:44.506Z,9.21
2018-03-20T12:23:12.424Z,8.56
2018-03-20T12:25:39.966Z,8.45
2018-03-20T12:28:06.810Z,8.83
2018-03-20T12:30:35.004Z,9.21
2018-03-20T12:33:01.822Z,9.32
2018-03-20T12:35:31.673Z,9.53
2018-03-20T12:37:59.252Z,9.73
2018-03-20T12:40:25.906Z,9.69
2018-03-20T12:42:53.145Z,9.67
2018-03-20T12:45:20.472Z,9.77
2018-03-20T12:47:47.520Z,9.56
2018-03-20T12:50:14.652Z,9.95
2018-03-20T12:52:41.729Z,9.33
2018-03-20T12:55:09.139Z,9.59
2018-03-20T12:57:36.490Z,9.57
2018-03-20T13:00:03.272Z,9.51
2018-03-20T13:02:30.202Z,9.24
2018-03-20T13:04:57.627Z,9.64
2018-03-20T13:07:24.782Z,9.80
2018-03-20T13:09:51.859Z,9.19
2018-03-20T13:12:19.081Z,9.97
2018-03-20T13:14:45.867Z,10.10
2018-03-20T13:17:13.249Z,10.27
2018-03-20T13:19:41.208Z,10.12
2018-03-20T13:22:12.047Z,10.32
2018-03-20T13:24:39.225Z,10.49
2018-03-20T13:27:06.472Z,10.75
2018-03-20T13:29:35.154Z,10.42
2018-03-20T13:32:02.670Z,10.56
2018-03-20T13:34:29.439Z,10.05
2018-03-20T13:36:56.445Z,10.23
2018-03-20T13:39:23.565Z,10.47
2018-03-20T13:41:50.178Z,10.24
2018-03-20T13:44:17.221Z,10.44
2018-03-20T13:46:44.224Z,10.45
2018-03-20T13:49:11.122Z,10.67
2018-03-20T13:51:38.021Z,10.35
2018-03-20T13:54:04.985Z,10.81
2018-03-20T13:56:31.886Z,10.97
2018-03-20T13:58:59.377Z,11.08
2018-03-20T14:01:26.086Z,11.14
2018-03-20T14:03:52.529Z,10.53
2018-03-20T14:06:19.603Z,11.02
2018-03-20T14:08:46.660Z,11.21
2018-03-20T14:11:14.042Z,11.18
2018-03-20T14:13:42.315Z,10.52
2018-03-20T14:16:16.118Z,10.97
2018-03-20T14:18:42.946Z,11.03
2018-03-20T14:21:10.280Z,11.28
2018-03-20T14:23:37.319Z,11.34
2018-03-20T14:26:04.065Z,11.27
2018-03-20T14:28:31.253Z,11.10
2018-03-20T14:30:58.044Z,11.19
2018-03-20T14:33:25.347Z,11.31
2018-03-20T14:35:52.898Z,10.63
2018-03-20T14:38:20.011Z,11.04
2018-03-20T14:40:47.331Z,11.12
2018-03-20T14:43:13.995Z,11.23
2018-03-20T14:45:40.712Z,11.31
2018-03-20T14:48:07.850Z,11.18
2018-03-20T14:50:35.127Z,11.21
2018-03-20T14:53:01.738Z,11.18
2018-03-20T14:55:28.671Z,11.21
2018-03-20T14:57:56.520Z,11.28
2018-03-20T15:00:23.177Z,10.85
2018-03-20T15:02:50.146Z,10.97
2018-03-20T15:05:17.013Z,10.68
2018-03-20T15:07:43.805Z,11.01
2018-03-20T15:10:10.562Z,11.05
2018-03-20T15:12:37.253Z,10.99
2018-03-20T15:15:04.303Z,11.22
2018-03-20T15:17:31.451Z,11.06
2018-03-20T15:19:58.618Z,10.92
2018-03-20T15:22:25.667Z,10.77
2018-03-20T15:24:53.116Z,10.90
2018-03-20T15:27:19.920Z,10.77
2018-03-20T15:29:46.511Z,10.79
2018-03-20T15:32:13.298Z,10.72
2018-03-20T15:34:41.337Z,10.68
2018-03-20T15:37:08.305Z,10.69
2018-03-20T15:39:35.342Z,10.87
2018-03-20T15:42:02.450Z,10.74
2018-03-20T15:44:29.438Z,10.76
2018-03-20T15:46:56.522Z,10.74
2018-03-20T15:49:24.073Z,10.80
2018-03-20T15:51:51.006Z,10.86
2018-03-20T15:54:17.832Z,10.89
2018-03-20T15:56:44.686Z,10.89
2018-03-20T15:59:11.436Z,10.81
2018-03-20T16:01:38.127Z,10.93
2018-03-20T16:04:05.825Z,11.01
2018-03-20T16:06:32.679Z,10.94
2018-03-20T16:08:59.948Z,10.96
2018-03-20T16:11:26.742Z,10.92
2018-03-20T16:13:54.142Z,11.01
2018-03-20T16:16:21.040Z,11.04
2018-03-20T16:18:47.738Z,10.81
2018-03-20T16:21:14.386Z,10.46
2018-03-20T16:23:40.988Z,10.23
2018-03-20T16:26:08.519Z,9.67
2018-03-20T16:28:35.143Z,10.27
2018-03-20T16:31:02.428Z,10.49
2018-03-20T16:33:28.828Z,10.55
2018-03-20T16:35:55.542Z,10.66
2018-03-20T16:38:22.434Z,10.74
2018-03-20T16:40:49.174Z,10.69
2018-03-20T16:43:16.143Z,10.80
2018-03-20T16:45:43.395Z,10.87
2018-03-20T16:48:10.092Z,10.82
2018-03-20T16:50:36.998Z,10.73
2018-03-20T16:53:03.703Z,10.63
2018-03-20T16:55:31.052Z,10.23
2018-03-20T16:57:58.004Z,10.53
2018-03-20T17:00:24.832Z,10.57
2018-03-20T17:02:51.899Z,10.64
2018-03-20T17:05:19.223Z,10.53
2018-03-20T17:07:46.563Z,10.43
2018-03-20T17:10:13.024Z,10.47
2018-03-20T17:12:40.110Z,10.61
2018-03-20T17:15:07.725Z,10.63
2018-03-20T17:17:35.396Z,10.71
2018-03-20T17:20:03.239Z,10.62
2018-03-20T17:22:30.409Z,10.67
2018-03-20T17:24:57.418Z,10.71
2018-03-20T17:27:24.326Z,10.72
2018-03-20T17:29:51.268Z,10.76
2018-03-20T17:32:18.150Z,10.78
2018-03-20T17:34:44.690Z,10.80
2018-03-20T17:37:11.460Z,10.78
2018-03-20T17:39:38.052Z,10.76
2018-03-20T17:42:05.738Z,10.81
2018-03-20T17:44:33.626Z,10.83
2018-03-20T17:47:00.328Z,10.75
2018-03-20T17:49:27.372Z,10.55
2018-03-20T17:51:54.252Z,10.54
2018-03-20T17:54:20.830Z,10.62
2018-03-20T17:56:48.375Z,10.44
2018-03-20T17:59:15.506Z,10.65
2018-03-20T18:01:42.443Z,10.67
2018-03-20T18:04:09.630Z,10.69
2018-03-20T18:06:36.214Z,10.63
2018-03-20T18:09:04.817Z,10.61
2018-03-20T18:11:31.780Z,10.55
2018-03-20T18:13:58.426Z,10.52
2018-03-20T18:16:25.528Z,10.55
2018-03-20T18:18:52.585Z,10.56
2018-03-20T18:21:20.643Z,10.57
2018-03-20T18:23:48.927Z,10.51
2018-03-20T18:26:17.907Z,10.46
2018-03-20T18:28:44.379Z,10.20
2018-03-20T18:31:11.079Z,10.29
2018-03-20T18:33:37.948Z,10.34
2018-03-20T18:36:05.872Z,10.31
2018-03-20T18:38:32.869Z,10.11
2018-03-20T18:41:00.690Z,10.19
2018-03-20T18:43:27.270Z,10.28
2018-03-20T18:45:54.120Z,10.12
2018-03-20T18:48:20.638Z,10.26
2018-03-20T18:50:48.164Z,10.20
2018-03-20T18:53:15.448Z,10.30
2018-03-20T18:55:43.656Z,10.12
2018-03-20T18:58:10.372Z,10.25
2018-03-20T19:00:37.006Z,10.10
2018-03-20T19:03:03.996Z,10.18
2018-03-20T19:05:30.778Z,10.24
2018-03-20T19:07:57.957Z,10.21
2018-03-20T19:10:25.298Z,10.33
2018-03-20T19:12:52.194Z,10.11
2018-03-20T19:15:19.086Z,10.23
2018-03-20T19:17:45.617Z,10.17
2018-03-20T19:20:12.303Z,10.08
2018-03-20T19:22:39.664Z,10.14
2018-03-20T19:25:06.445Z,10.16
2018-03-20T19:27:34.865Z,10.19
2018-03-20T19:30:01.704Z,9.79
2018-03-20T19:32:28.754Z,9.77
2018-03-20T19:34:56.041Z,9.97
2018-03-20T19:37:23.108Z,9.98
2018-03-20T19:39:50.110Z,10.04
2018-03-20T19:42:16.924Z,10.08
2018-03-20T19:44:43.511Z,10.12
2018-03-20T19:47:11.019Z,10.00
2018-03-20T19:49:37.754Z,9.46
2018-03-20T19:52:04.643Z,9.38
2018-03-20T19:54:31.940Z,9.75
2018-03-20T19:56:58.784Z,9.76
2018-03-20T19:59:25.614Z,9.85
2018-03-20T20:01:52.511Z,9.77
2018-03-20T20:04:19.284Z,9.85
2018-03-20T20:06:46.430Z,10.01
2018-03-20T20:09:13.256Z,10.05
2018-03-20T20:11:40.146Z,9.85
2018-03-20T20:14:07.367Z,9.75
2018-03-20T20:16:34.411Z,9.84
2018-03-20T20:19:02.386Z,9.79
2018-03-20T20:21:29.570Z,9.77
2018-03-20T20:23:56.733Z,9.85
2018-03-20T20:26:23.615Z,9.93
2018-03-20T20:28:50.871Z,9.85
2018-03-20T20:31:17.775Z,9.88
2018-03-20T20:33:45.342Z,9.86
2018-03-20T20:36:11.977Z,9.76
2018-03-20T20:38:38.887Z,9.62
2018-03-20T20:41:06.011Z,9.63
2018-03-20T20:43:32.910Z,9.55
2018-03-20T20:45:59.956Z,9.32
2018-03-20T20:48:26.914Z,9.53
2018-03-20T20:50:53.727Z,9.19
2018-03-20T20:53:20.602Z,9.52
2018-03-20T20:55:47.298Z,9.62
2018-03-20T20:58:14.197Z,9.73
2018-03-20T21:03:14.343Z,9.61
2018-03-20T21:05:41.246Z,9.66
2018-03-20T21:08:08.322Z,9.73
2018-03-20T21:10:35.128Z,9.68
2018-03-20T21:13:02.014Z,9.67
2018-03-20T21:15:28.741Z,9.63
2018-03-20T21:17:55.530Z,9.70
2018-03-20T21:20:22.270Z,9.77
2018-03-20T21:22:49.078Z,9.70
2018-03-20T21:25:16.189Z,9.57
2018-03-20T21:27:43.314Z,9.55
2018-03-20T21:30:10.196Z,9.49
2018-03-20T21:32:37.304Z,9.56
2018-03-20T21:35:04.307Z,9.56
2018-03-20T21:37:31.522Z,9.55
2018-03-20T21:39:58.603Z,9.59
2018-03-20T21:42:25.591Z,9.55
2018-03-20T21:44:52.255Z,9.65
2018-03-20T21:47:19.248Z,9.53
2018-03-20T21:49:46.237Z,9.59
2018-03-20T21:52:12.961Z,9.57
2018-03-20T21:54:39.954Z,9.52
2018-03-20T21:57:07.041Z,9.55
2018-03-20T21:59:33.705Z,9.49
2018-03-20T22:02:00.422Z,9.51
2018-03-20T22:04:27.155Z,9.50
2018-03-20T22:06:55.119Z,8.87
2018-03-20T22:09:21.723Z,9.25
2018-03-20T22:11:48.437Z,9.09
2018-03-20T22:14:15.103Z,9.33
2018-03-20T22:16:42.126Z,9.40
2018-03-20T22:19:08.886Z,9.26
2018-03-20T22:21:36.190Z,8.03
2018-03-20T22:24:02.813Z,8.43
2018-03-20T22:26:29.535Z,8.93
2018-03-20T22:28:56.237Z,8.99
2018-03-20T22:31:23.429Z,9.02
2018-03-20T22:33:50.337Z,9.07
2018-03-20T22:36:17.514Z,9.06
2018-03-20T22:38:44.537Z,9.06
2018-03-20T22:41:11.448Z,9.11
2018-03-20T22:43:38.140Z,8.58
2018-03-20T22:46:05.263Z,8.69
2018-03-20T22:48:32.290Z,8.91
2018-03-20T22:50:58.994Z,8.63
2018-03-20T22:53:25.686Z,8.64
2018-03-20T22:55:53.303Z,8.80
2018-03-20T22:58:20.010Z,8.63
2018-03-20T23:00:46.941Z,8.84
2018-03-20T23:03:13.569Z,9.03
2018-03-20T23:05:40.021Z,9.11
2018-03-20T23:08:07.536Z,9.06
2018-03-20T23:10:34.328Z,9.04
2018-03-20T23:13:01.141Z,8.77
2018-03-20T23:15:27.859Z,9.00
2018-03-20T23:17:54.679Z,9.16
2018-03-20T23:20:21.028Z,9.24
2018-03-20T23:22:47.819Z,8.42
2018-03-20T23:25:15.002Z,9.04
2018-03-20T23:27:42.150Z,9.16
2018-03-20T23:30:08.935Z,9.31
2018-03-20T23:32:35.534Z,9.43
2018-03-20T23:35:02.445Z,9.38
2018-03-20T23:37:29.127Z,9.46
2018-03-20T23:39:55.793Z,9.42
2018-03-20T23:42:22.423Z,9.42
2018-03-20T23:44:49.158Z,9.47
2018-03-20T23:47:17.491Z,9.46
2018-03-20T23:49:44.062Z,9.41
2018-03-20T23:52:10.674Z,9.29
2018-03-20T23:54:37.656Z,9.33
2018-03-20T23:57:04.949Z,9.43
2018-03-20T23:59:31.764Z,9.38
